Time;durP1;ratioP1;P1;durP2;ratioP2;P2;SDS_P1;SDS_P2;PMS_P1;PMS_P2;Temp;Humidity;BMP_temperature;BMP_pressure;BME280_temperature;BME280_humidity;BME280_pressure;Samples;Min_cycle;Max_cycle;Signal;HPM_P1;HPM_P2
2022/08/26 00:00:00;;;;;;;5.40;4.90;;;22.50;99.90;;;;;;4978494;28;20117;-70
2022/08/26 00:02:26;;;;;;;5.88;5.38;;;22.40;99.90;;;;;;4995609;28;20528;-65
2022/08/26 00:04:52;;;;;;;5.20;4.72;;;22.40;99.90;;;;;;4995652;28;20030;-67
2022/08/26 00:07:17;;;;;;;5.90;5.40;;;22.40;99.90;;;;;;4995802;28;20027;-70
2022/08/26 00:09:43;;;;;;;4.90;4.50;;;22.40;99.90;;;;;;4995367;28;20101;-72
2022/08/26 00:12:09;;;;;;;5.40;4.90;;;22.40;99.90;;;;;;4995549;28;20027;-68
2022/08/26 00:14:35;;;;;;;5.22;4.82;;;22.40;99.90;;;;;;4995685;28;20033;-69
2022/08/26 00:17:00;;;;;;;4.68;4.22;;;22.30;99.90;;;;;;4995518;28;20029;-74
2022/08/26 00:19:26;;;;;;;4.82;4.53;;;22.40;99.90;;;;;;4995455;28;20018;-70
2022/08/26 00:21:53;;;;;;;6.00;5.30;;;22.40;99.90;;;;;;4977823;28;20030;-69
2022/08/26 00:24:19;;;;;;;5.13;4.47;;;22.40;99.90;;;;;;4995362;28;20101;-69
2022/08/26 00:26:46;;;;;;;5.82;5.30;;;22.40;99.90;;;;;;4995143;28;20432;-67
2022/08/26 00:29:12;;;;;;;4.57;4.28;;;22.30;99.90;;;;;;4977933;28;20462;-72
2022/08/26 00:31:38;;;;;;;4.63;4.28;;;22.30;99.90;;;;;;4995284;28;20062;-69
2022/08/26 00:34:03;;;;;;;4.93;4.53;;;22.30;99.90;;;;;;4995217;28;20392;-73
2022/08/26 00:36:29;;;;;;;4.28;3.97;;;22.40;99.90;;;;;;4995346;28;20053;-69
2022/08/26 00:38:56;;;;;;;4.85;4.30;;;22.30;99.90;;;;;;4995074;28;20077;-68
2022/08/26 00:41:22;;;;;;;5.97;5.05;;;22.30;99.90;;;;;;4994902;28;20149;-72
2022/08/26 00:43:48;;;;;;;5.07;4.30;;;22.30;99.90;;;;;;4995050;28;20053;-67
2022/08/26 00:46:20;;;;;;;5.45;4.95;;;22.30;99.90;;;;;;4994980;28;20026;-70
2022/08/26 00:48:48;;;;;;;6.00;5.50;;;22.20;99.90;;;;;;4977497;28;20034;-71
2022/08/26 00:51:18;;;;;;;5.00;4.60;;;22.10;99.90;;;;;;4977402;28;20039;-72
2022/08/26 00:53:57;;;;;;;5.15;4.65;;;22.10;99.90;;;;;;4994887;28;20049;-73
2022/08/26 00:56:30;;;;;;;4.47;4.18;;;22.10;99.90;;;;;;4977531;28;20030;-69
2022/08/26 00:58:59;;;;;;;5.25;4.85;;;22.00;99.90;;;;;;4994063;28;20108;-73
2022/08/26 01:01:27;;;;;;;4.53;4.18;;;22.00;99.90;;;;;;4994771;28;20030;-71
2022/08/26 01:03:54;;;;;;;4.30;4.00;;;22.10;99.90;;;;;;4994838;28;20029;-73
2022/08/26 01:06:22;;;;;;;3.92;3.63;;;22.00;99.90;;;;;;4994579;28;20069;-69
2022/08/26 01:08:47;;;;;;;4.18;3.78;;;22.00;99.90;;;;;;4977172;28;20109;-72
2022/08/26 01:11:15;;;;;;;4.28;3.80;;;22.10;99.90;;;;;;4994765;28;20536;-72
2022/08/26 01:13:41;;;;;;;4.07;3.65;;;22.10;99.90;;;;;;4994681;28;20027;-72
2022/08/26 01:16:11;;;;;;;4.57;4.07;;;22.00;99.90;;;;;;4994445;28;20029;-70
2022/08/26 01:18:40;;;;;;;4.45;4.05;;;22.00;99.90;;;;;;4994541;28;20069;-67
2022/08/26 01:21:10;;;;;;;4.28;3.88;;;21.90;99.90;;;;;;4994616;28;20506;-67
2022/08/26 01:23:49;;;;;;;3.92;3.63;;;21.90;99.90;;;;;;4976770;28;20047;-70
2022/08/26 01:26:20;;;;;;;4.03;3.63;;;21.90;99.90;;;;;;4994458;28;20023;-71
2022/08/26 01:28:49;;;;;;;3.80;3.60;;;21.90;99.90;;;;;;4994202;28;20015;-73
2022/08/26 01:31:17;;;;;;;4.47;3.97;;;21.80;99.90;;;;;;4994551;28;20085;-69
2022/08/26 01:33:51;;;;;;;5.05;4.60;;;21.90;99.90;;;;;;4994277;28;20486;-70
2022/08/26 01:36:17;;;;;;;4.10;3.70;;;21.80;99.90;;;;;;4994142;28;20023;-66
2022/08/26 01:38:44;;;;;;;3.28;2.97;;;21.80;99.90;;;;;;4976863;28;20023;-68
2022/08/26 01:41:13;;;;;;;3.60;3.30;;;21.80;99.90;;;;;;4994305;28;20388;-65
2022/08/26 01:43:43;;;;;;;4.03;3.75;;;21.80;99.90;;;;;;4976704;28;20026;-74
2022/08/26 01:46:10;;;;;;;4.68;4.25;;;21.70;99.90;;;;;;4994338;28;20026;-71
2022/08/26 01:48:38;;;;;;;4.75;4.03;;;21.80;99.90;;;;;;4994333;28;20022;-64
2022/08/26 01:51:06;;;;;;;4.38;4.07;;;21.70;99.90;;;;;;4993993;28;20076;-72
2022/08/26 01:53:32;;;;;;;3.72;3.50;;;21.70;99.90;;;;;;4976740;28;20121;-72
2022/08/26 01:56:01;;;;;;;4.45;3.58;;;21.70;99.90;;;;;;4994276;28;20061;-68
2022/08/26 01:58:35;;;;;;;3.65;3.35;;;21.70;99.90;;;;;;4993994;28;20034;-72
2022/08/26 02:01:01;;;;;;;3.70;3.40;;;21.70;99.90;;;;;;4994223;28;20034;-69
2022/08/26 02:03:28;;;;;;;4.05;3.67;;;21.70;99.90;;;;;;4993810;28;20023;-69
2022/08/26 02:06:02;;;;;;;3.17;2.97;;;21.70;99.90;;;;;;4994133;28;20053;-70
2022/08/26 02:08:38;;;;;;;4.13;3.50;;;21.70;99.90;;;;;;4994253;28;20030;-68
2022/08/26 02:11:06;;;;;;;3.75;3.17;;;21.70;99.90;;;;;;4980186;28;20516;-72
2022/08/26 02:13:38;;;;;;;3.63;3.10;;;21.60;99.90;;;;;;4997975;28;20058;-76
2022/08/26 02:16:04;;;;;;;3.50;3.20;;;21.60;99.90;;;;;;4980176;28;20034;-69
2022/08/26 02:18:33;;;;;;;4.15;3.75;;;21.60;99.90;;;;;;4998010;28;20026;-68
2022/08/26 02:20:59;;;;;;;3.33;3.00;;;21.60;99.90;;;;;;4997507;28;20392;-70
2022/08/26 02:23:26;;;;;;;3.15;2.95;;;21.60;99.90;;;;;;4997281;28;20061;-73
2022/08/26 02:26:08;;;;;;;3.30;3.00;;;21.60;99.90;;;;;;4980408;28;20050;-70
2022/08/26 02:28:49;;;;;;;3.42;2.95;;;21.50;99.90;;;;;;4997658;28;20477;-73
2022/08/26 02:31:14;;;;;;;3.25;2.95;;;21.50;99.90;;;;;;4997649;28;20046;-70
2022/08/26 02:33:40;;;;;;;3.15;2.95;;;21.50;99.90;;;;;;4997418;28;20080;-73
2022/08/26 02:36:06;;;;;;;3.75;3.40;;;21.50;99.90;;;;;;4997130;28;20034;-71
2022/08/26 02:38:32;;;;;;;3.53;3.22;;;21.50;99.90;;;;;;4997603;28;20034;-71
2022/08/26 02:40:58;;;;;;;3.35;3.08;;;21.50;99.90;;;;;;4997446;28;20027;-71
2022/08/26 02:43:24;;;;;;;3.00;2.80;;;21.50;99.90;;;;;;4997471;28;20027;-74
2022/08/26 02:45:50;;;;;;;3.60;3.33;;;21.40;99.90;;;;;;4997132;28;20469;-72
2022/08/26 02:48:18;;;;;;;3.40;3.20;;;21.40;99.90;;;;;;4997456;28;20022;-64
2022/08/26 02:50:44;;;;;;;3.90;3.60;;;21.40;99.90;;;;;;4979352;28;20037;-72
2022/08/26 02:53:11;;;;;;;3.70;3.40;;;21.40;99.90;;;;;;4996878;28;20022;-70
2022/08/26 02:55:37;;;;;;;3.80;3.50;;;21.40;99.90;;;;;;4979481;28;20030;-72
2022/08/26 02:58:03;;;;;;;4.38;3.53;;;21.40;99.90;;;;;;4979644;28;20060;-70
2022/08/26 03:00:30;;;;;;;3.47;3.25;;;21.40;99.90;;;;;;4996956;28;20109;-70
2022/08/26 03:02:57;;;;;;;4.25;3.22;;;21.30;99.90;;;;;;4996803;28;20022;-67
2022/08/26 03:05:23;;;;;;;4.00;3.70;;;21.30;99.90;;;;;;4996589;28;20385;-70
2022/08/26 03:07:49;;;;;;;2.95;2.75;;;21.30;99.90;;;;;;4996865;28;20080;-66
2022/08/26 03:10:15;;;;;;;3.45;3.20;;;21.30;99.90;;;;;;4996753;28;20097;-67
2022/08/26 03:12:44;;;;;;;4.15;3.60;;;21.30;99.90;;;;;;4996797;28;20018;-68
2022/08/26 03:15:11;;;;;;;4.90;4.05;;;21.30;99.90;;;;;;4996949;28;20026;-67
2022/08/26 03:17:37;;;;;;;4.70;4.28;;;21.30;99.90;;;;;;4996560;28;20167;-65
2022/08/26 03:20:07;;;;;;;3.75;3.42;;;21.30;99.90;;;;;;4996275;28;20098;-70
2022/08/26 03:22:33;;;;;;;3.90;3.47;;;21.30;99.90;;;;;;4995338;28;20053;-66
2022/08/26 03:24:59;;;;;;;4.00;3.50;;;21.20;99.90;;;;;;4996574;28;20026;-66
2022/08/26 03:27:25;;;;;;;3.80;3.50;;;21.20;99.90;;;;;;4996514;28;20057;-71
2022/08/26 03:32:35;;;;;;;4.28;3.88;;;21.20;99.90;;;;;;4996119;28;20040;-69
2022/08/26 03:35:00;;;;;;;3.60;3.30;;;21.10;99.90;;;;;;4996121;28;20030;-68
2022/08/26 03:37:26;;;;;;;4.28;3.88;;;21.10;99.90;;;;;;4979019;28;20065;-72
2022/08/26 03:39:52;;;;;;;4.03;3.72;;;21.10;99.90;;;;;;4996129;28;20031;-71
2022/08/26 03:42:17;;;;;;;5.00;4.20;;;21.10;99.90;;;;;;4995928;28;20073;-64
2022/08/26 03:44:43;;;;;;;3.63;3.42;;;21.10;99.90;;;;;;4996044;28;20019;-71
2022/08/26 03:47:09;;;;;;;3.42;3.13;;;21.00;99.90;;;;;;4996019;28;20492;-67
2022/08/26 03:49:35;;;;;;;3.80;3.50;;;21.00;99.90;;;;;;4995920;28;20507;-69
2022/08/26 03:52:02;;;;;;;3.72;3.42;;;21.10;99.90;;;;;;4995869;28;20030;-67
2022/08/26 03:54:28;;;;;;;3.72;3.42;;;21.10;99.90;;;;;;4996161;28;20022;-69
2022/08/26 03:56:53;;;;;;;3.97;3.30;;;21.10;99.90;;;;;;4995857;28;20030;-72
2022/08/26 03:59:19;;;;;;;3.40;3.10;;;21.10;99.90;;;;;;4995882;28;20023;-68
2022/08/26 04:01:44;;;;;;;3.10;2.80;;;21.10;99.90;;;;;;4995984;28;20033;-70
2022/08/26 04:04:10;;;;;;;3.88;3.45;;;21.00;99.90;;;;;;4995666;28;20026;-69
2022/08/26 04:06:41;;;;;;;2.80;2.60;;;21.00;99.90;;;;;;4978290;28;20377;-71
2022/08/26 04:09:13;;;;;;;2.70;2.50;;;21.00;99.90;;;;;;4995655;28;20461;-67
2022/08/26 04:11:43;;;;;;;5.55;4.22;;;21.00;99.90;;;;;;4995775;28;20488;-67
2022/08/26 04:14:14;;;;;;;5.70;4.00;;;21.00;99.90;;;;;;4995397;28;20058;-67
2022/08/26 04:16:41;;;;;;;4.18;3.72;;;20.90;99.90;;;;;;4995389;28;20022;-68
2022/08/26 04:19:08;;;;;;;4.00;3.70;;;21.00;99.90;;;;;;4995451;28;20097;-71
2022/08/26 04:21:37;;;;;;;4.80;4.35;;;21.00;99.90;;;;;;4977733;28;20029;-69
2022/08/26 04:24:04;;;;;;;4.13;3.78;;;21.00;99.90;;;;;;4995301;28;20471;-72
2022/08/26 04:26:36;;;;;;;4.35;3.95;;;21.00;99.90;;;;;;4995260;28;20026;-67
2022/08/26 04:29:05;;;;;;;4.80;4.40;;;21.00;99.90;;;;;;4977793;28;20038;-67
2022/08/26 04:31:33;;;;;;;5.15;4.75;;;21.00;99.90;;;;;;4994772;28;20049;-70
2022/08/26 04:33:59;;;;;;;4.53;4.10;;;21.00;99.90;;;;;;4994086;28;20421;-72
2022/08/26 04:36:25;;;;;;;3.92;3.63;;;21.00;99.90;;;;;;4977713;28;20049;-71
2022/08/26 04:38:51;;;;;;;4.45;4.05;;;21.00;99.90;;;;;;4994895;28;20022;-66
2022/08/26 04:41:18;;;;;;;4.15;3.85;;;21.00;99.90;;;;;;4994897;28;20110;-67
2022/08/26 04:43:45;;;;;;;4.35;3.95;;;21.10;99.90;;;;;;4994913;28;20026;-70
2022/08/26 04:46:14;;;;;;;4.75;4.30;;;21.10;99.90;;;;;;4995215;28;20033;-73
2022/08/26 04:48:40;;;;;;;4.60;4.20;;;21.20;99.90;;;;;;4977354;28;20076;-73
2022/08/26 04:51:07;;;;;;;3.90;3.63;;;21.20;99.90;;;;;;4994683;28;20036;-70
2022/08/26 04:53:32;;;;;;;3.85;3.63;;;21.20;99.90;;;;;;4977281;28;20076;-69
2022/08/26 04:55:58;;;;;;;4.65;4.25;;;21.30;99.90;;;;;;4993873;28;20480;-67
2022/08/26 04:58:24;;;;;;;4.05;3.75;;;21.30;99.90;;;;;;4994450;28;20384;-68
2022/08/26 05:00:52;;;;;;;3.92;3.58;;;21.30;99.90;;;;;;4994566;28;20101;-72
2022/08/26 05:03:19;;;;;;;3.63;3.33;;;21.30;99.90;;;;;;4993990;28;20488;-68
2022/08/26 05:05:47;;;;;;;3.80;3.47;;;21.30;99.90;;;;;;4994378;28;20030;-72
2022/08/26 05:08:14;;;;;;;4.18;3.88;;;21.40;99.90;;;;;;4993170;28;20385;-67
2022/08/26 05:10:42;;;;;;;3.72;3.40;;;21.40;99.90;;;;;;4994441;28;20030;-66
2022/08/26 05:13:08;;;;;;;4.28;3.88;;;21.50;99.90;;;;;;4992685;28;20034;-67
2022/08/26 05:15:35;;;;;;;4.95;4.55;;;21.40;99.90;;;;;;4993775;28;20041;-69
2022/08/26 05:18:05;;;;;;;5.28;4.88;;;21.40;99.90;;;;;;4994382;28;20023;-70
2022/08/26 05:20:31;;;;;;;6.20;5.68;;;21.40;99.90;;;;;;4994260;28;20057;-67
2022/08/26 05:23:00;;;;;;;4.93;4.53;;;21.40;99.90;;;;;;4994109;28;20488;-67
2022/08/26 05:25:29;;;;;;;5.65;5.20;;;21.50;99.90;;;;;;4966758;28;20043;-67
2022/08/26 05:27:56;;;;;;;5.15;4.65;;;21.60;99.90;;;;;;4973247;28;20019;-69
2022/08/26 05:30:22;;;;;;;5.28;4.88;;;21.60;99.90;;;;;;4972616;28;20050;-72
2022/08/26 05:32:49;;;;;;;5.10;4.70;;;21.80;99.90;;;;;;4972760;28;20047;-70
2022/08/26 05:35:16;;;;;;;5.20;4.80;;;21.80;99.90;;;;;;4971431;28;20046;-62
2022/08/26 05:37:42;;;;;;;5.03;4.55;;;21.90;99.90;;;;;;4972261;28;20524;-62
2022/08/26 05:40:09;;;;;;;4.88;4.25;;;22.10;99.90;;;;;;4972268;28;20454;-62
2022/08/26 05:42:35;;;;;;;4.57;3.83;;;22.10;99.90;;;;;;4973492;28;20035;-62
2022/08/26 05:45:00;;;;;;;6.20;5.30;;;22.20;99.90;;;;;;4974936;28;20150;-63
2022/08/26 05:47:27;;;;;;;4.80;4.45;;;22.20;99.90;;;;;;4982172;28;20337;-62
2022/08/26 05:49:54;;;;;;;4.75;4.35;;;22.40;99.90;;;;;;4997284;28;20033;-62
2022/08/26 05:52:20;;;;;;;5.88;5.32;;;22.40;99.90;;;;;;4994089;28;20122;-64
2022/08/26 05:54:46;;;;;;;5.05;4.40;;;22.50;99.90;;;;;;4996722;28;20097;-63
2022/08/26 05:57:12;;;;;;;4.55;4.15;;;22.60;99.90;;;;;;4993773;28;20042;-62
2022/08/26 05:59:38;;;;;;;5.35;4.95;;;22.70;99.90;;;;;;4995328;28;20101;-62
2022/08/26 06:02:05;;;;;;;5.35;4.95;;;22.70;99.90;;;;;;4995469;28;20144;-62
2022/08/26 06:04:30;;;;;;;5.30;4.80;;;22.90;99.90;;;;;;4993716;28;20031;-62
2022/08/26 06:06:56;;;;;;;5.03;4.63;;;23.00;99.90;;;;;;4992188;28;20370;-62
2022/08/26 06:09:23;;;;;;;5.07;4.68;;;23.10;99.90;;;;;;4985429;28;20026;-63
2022/08/26 06:11:49;;;;;;;5.30;4.90;;;23.10;99.90;;;;;;4985713;28;20030;-65
2022/08/26 06:14:16;;;;;;;8.18;7.30;;;23.30;99.90;;;;;;4985643;28;20034;-64
2022/08/26 06:16:43;;;;;;;4.93;4.50;;;23.40;99.90;;;;;;4985047;28;20026;-65
2022/08/26 06:19:10;;;;;;;5.63;5.13;;;23.40;99.90;;;;;;4985403;28;20445;-64
2022/08/26 06:21:38;;;;;;;5.15;4.75;;;23.80;99.90;;;;;;4987000;28;20018;-62
2022/08/26 06:27:12;;;;;;;4.10;3.70;;;27.60;99.90;;;;;;4984031;28;20802;-60
2022/08/26 06:29:38;;;;;;;4.40;4.00;;;29.30;99.90;;;;;;4985371;28;20469;-66
2022/08/26 06:32:04;;;;;;;5.28;4.78;;;30.20;99.90;;;;;;4993892;28;20113;-64
2022/08/26 06:34:30;;;;;;;5.57;5.07;;;30.80;99.90;;;;;;4993939;28;20042;-63
2022/08/26 06:36:57;;;;;;;6.15;5.20;;;31.10;99.20;;;;;;4994049;28;20057;-61
2022/08/26 06:39:23;;;;;;;5.07;4.68;;;31.50;98.40;;;;;;4992476;28;20456;-60
2022/08/26 06:41:49;;;;;;;4.85;4.45;;;32.10;96.90;;;;;;4988360;28;20018;-62
2022/08/26 06:44:16;;;;;;;6.78;5.50;;;32.90;96.00;;;;;;4991911;28;20176;-61
2022/08/26 06:46:42;;;;;;;5.15;4.72;;;33.40;94.10;;;;;;4991795;28;20436;-61
2022/08/26 06:49:08;;;;;;;4.90;4.50;;;33.90;92.40;;;;;;4992073;28;20105;-62
2022/08/26 06:51:37;;;;;;;5.30;4.80;;;34.30;91.30;;;;;;4994243;28;20034;-62
2022/08/26 06:54:04;;;;;;;5.10;4.70;;;34.80;88.00;;;;;;4995003;28;20105;-60
2022/08/26 06:56:40;;;;;;;6.68;5.07;;;35.10;87.50;;;;;;4994857;28;20428;-63
2022/08/26 06:59:07;;;;;;;4.57;4.25;;;35.50;84.10;;;;;;4995923;28;20081;-62
2022/08/26 07:01:36;;;;;;;5.90;5.30;;;35.60;82.80;;;;;;4995924;28;20037;-61
2022/08/26 07:04:04;;;;;;;6.70;5.47;;;35.80;81.30;;;;;;4988139;28;20069;-61
2022/08/26 07:06:37;;;;;;;7.00;6.40;;;35.90;79.20;;;;;;4995202;28;20042;-64
2022/08/26 07:09:06;;;;;;;9.70;8.07;;;36.00;76.80;;;;;;4995291;28;20054;-65
2022/08/26 07:11:32;;;;;;;6.82;6.32;;;35.90;75.60;;;;;;4990359;28;20170;-62
2022/08/26 07:13:58;;;;;;;8.70;7.25;;;35.50;77.10;;;;;;4995181;28;20100;-62
2022/08/26 07:16:26;;;;;;;11.00;7.82;;;35.20;77.40;;;;;;4992461;28;20053;-62
2022/08/26 07:18:52;;;;;;;7.40;6.70;;;35.40;74.60;;;;;;4990885;28;20023;-62
2022/08/26 07:21:19;;;;;;;6.95;6.32;;;35.20;76.20;;;;;;4991347;28;20042;-64
2022/08/26 07:23:45;;;;;;;7.00;6.30;;;35.80;74.80;;;;;;4991468;28;20054;-66
2022/08/26 07:26:15;;;;;;;6.75;6.10;;;36.50;73.40;;;;;;4993968;28;20544;-66
2022/08/26 07:28:44;;;;;;;5.85;5.35;;;37.00;71.10;;;;;;4994056;28;20022;-66
2022/08/26 07:31:12;;;;;;;7.05;6.25;;;37.40;70.50;;;;;;4993705;28;20102;-67
2022/08/26 07:33:39;;;;;;;11.55;8.55;;;37.70;69.80;;;;;;4991812;28;20034;-64
2022/08/26 07:36:06;;;;;;;8.45;6.60;;;37.80;66.90;;;;;;4991303;28;20027;-69
2022/08/26 07:38:33;;;;;;;6.80;6.20;;;37.30;68.60;;;;;;4991451;28;20041;-67
2022/08/26 07:41:00;;;;;;;12.77;8.80;;;37.70;68.00;;;;;;4979117;28;20033;-67
2022/08/26 07:43:27;;;;;;;10.93;7.95;;;37.60;65.40;;;;;;4974549;28;20034;-64
2022/08/26 07:45:53;;;;;;;6.97;6.40;;;37.20;69.40;;;;;;4975401;28;20029;-67
2022/08/26 07:48:18;;;;;;;8.13;7.32;;;37.20;68.60;;;;;;4975122;28;20106;-67
2022/08/26 07:50:44;;;;;;;7.60;6.90;;;37.00;67.10;;;;;;4974486;28;20035;-67
2022/08/26 07:53:11;;;;;;;11.82;8.73;;;37.10;68.80;;;;;;4975817;28;20023;-66
2022/08/26 07:55:37;;;;;;;9.05;6.72;;;37.40;65.70;;;;;;4974859;28;20094;-64
2022/08/26 07:58:04;;;;;;;8.30;7.50;;;37.20;67.90;;;;;;4973505;28;20019;-66
2022/08/26 08:25:19;;;;;;;9.55;7.45;;;39.10;62.50;;;;;;4933794;29;20107;-66
2022/08/26 08:27:45;;;;;;;14.18;7.70;;;38.70;63.40;;;;;;4934823;29;20043;-67
2022/08/26 08:30:12;;;;;;;8.38;7.57;;;38.70;64.00;;;;;;4937067;29;20506;-69
2022/08/26 08:32:38;;;;;;;9.68;7.38;;;38.50;64.10;;;;;;4937073;29;20031;-66
2022/08/26 08:35:07;;;;;;;7.63;6.82;;;38.80;62.00;;;;;;4936995;29;20027;-64
2022/08/26 08:37:33;;;;;;;7.40;6.70;;;39.10;61.60;;;;;;4935648;29;20039;-65
2022/08/26 08:39:59;;;;;;;7.47;6.78;;;39.30;60.50;;;;;;4935898;29;20115;-66
2022/08/26 08:42:44;;;;;;;9.73;7.18;;;39.20;60.60;;;;;;4936795;29;20110;-67
2022/08/26 08:45:33;;;;;;;7.13;6.35;;;39.20;61.10;;;;;;4937175;29;20102;-66
2022/08/26 08:48:28;;;;;;;9.25;6.90;;;39.10;59.50;;;;;;4958089;28;20377;-74
2022/08/26 08:51:09;;;;;;;7.72;6.97;;;38.90;59.60;;;;;;4950611;29;20047;-68
2022/08/26 08:53:40;;;;;;;7.30;6.70;;;38.70;63.00;;;;;;4936594;29;20024;-67
2022/08/26 08:56:36;;;;;;;7.80;7.03;;;38.20;61.60;;;;;;4936655;29;20132;-63
2022/08/26 08:59:08;;;;;;;7.22;6.53;;;38.10;62.30;;;;;;4935784;29;20349;-75
2022/08/26 09:01:50;;;;;;;7.55;6.38;;;38.20;62.50;;;;;;4936401;29;20167;-69
2022/08/26 09:04:15;;;;;;;7.18;6.50;;;38.10;62.60;;;;;;4935200;29;20023;-66
2022/08/26 09:06:43;;;;;;;6.75;6.13;;;37.70;60.80;;;;;;4933321;29;20055;-68
2022/08/26 09:09:20;;;;;;;7.25;6.55;;;37.80;61.90;;;;;;4935491;29;20020;-72
2022/08/26 09:11:45;;;;;;;6.93;6.20;;;37.50;62.40;;;;;;4932716;29;20036;-70
2022/08/26 09:14:11;;;;;;;6.85;6.15;;;37.40;63.50;;;;;;4935090;29;20034;-67
2022/08/26 09:17:00;;;;;;;7.25;6.53;;;37.50;62.20;;;;;;4933721;29;20032;-69
2022/08/26 09:19:41;;;;;;;6.90;6.30;;;37.40;66.60;;;;;;4933365;29;20023;-69
2022/08/26 09:22:07;;;;;;;8.25;5.60;;;37.40;64.90;;;;;;4946314;29;20477;-65
2022/08/26 09:24:37;;;;;;;7.38;6.57;;;37.30;65.10;;;;;;4953520;29;20046;-67
2022/08/26 09:27:02;;;;;;;5.82;5.30;;;37.20;64.20;;;;;;4969627;28;20050;-65
2022/08/26 09:29:41;;;;;;;6.40;5.80;;;37.20;63.60;;;;;;4965516;28;20027;-67
2022/08/26 09:32:22;;;;;;;7.22;6.20;;;37.20;66.50;;;;;;4938724;28;20370;-69
2022/08/26 09:35:02;;;;;;;7.95;5.93;;;37.00;63.40;;;;;;4961091;28;20054;-65
2022/08/26 09:37:37;;;;;;;6.57;5.82;;;36.80;63.80;;;;;;4970408;28;20110;-63
2022/08/26 09:40:35;;;;;;;10.23;7.65;;;36.90;66.10;;;;;;4970938;28;20026;-65
2022/08/26 09:43:14;;;;;;;6.72;6.05;;;36.80;61.00;;;;;;4916979;29;20040;-70
2022/08/26 09:45:44;;;;;;;7.10;6.40;;;36.70;62.10;;;;;;4952744;29;20445;-65
2022/08/26 09:48:22;;;;;;;7.25;6.40;;;36.90;62.50;;;;;;4964478;28;20051;-68
2022/08/26 09:51:00;;;;;;;6.07;5.57;;;36.60;68.30;;;;;;4940295;28;20456;-68
2022/08/26 09:53:35;;;;;;;7.22;6.53;;;36.80;67.10;;;;;;4973280;28;20074;-68
2022/08/26 09:56:25;;;;;;;9.80;7.13;;;36.90;64.60;;;;;;4974143;28;20385;-68
2022/08/26 09:58:52;;;;;;;8.52;6.50;;;37.00;60.50;;;;;;4974154;28;20022;-65
2022/08/26 10:01:34;;;;;;;6.10;5.55;;;36.90;62.60;;;;;;4973912;28;20031;-64
2022/08/26 10:04:13;;;;;;;7.07;6.38;;;36.90;63.00;;;;;;4973537;28;20089;-63
2022/08/26 10:06:55;;;;;;;7.22;6.10;;;37.10;63.10;;;;;;4972289;28;20474;-64
2022/08/26 10:09:22;;;;;;;5.97;5.47;;;37.10;64.80;;;;;;4971058;28;20023;-62
2022/08/26 10:11:48;;;;;;;6.60;6.00;;;37.40;63.00;;;;;;4970221;28;20043;-63
2022/08/26 10:14:31;;;;;;;10.80;7.43;;;37.60;62.90;;;;;;4970252;28;20034;-63
2022/08/26 10:17:13;;;;;;;7.70;6.85;;;37.90;64.00;;;;;;4952991;28;20062;-63
2022/08/26 10:19:50;;;;;;;6.70;6.20;;;37.90;62.30;;;;;;4971979;28;20129;-65
2022/08/26 10:22:30;;;;;;;6.38;5.85;;;38.00;62.00;;;;;;4972816;28;20023;-65
2022/08/26 10:25:00;;;;;;;7.50;6.20;;;38.20;63.00;;;;;;4967001;28;20384;-65
2022/08/26 10:27:25;;;;;;;6.90;6.20;;;38.20;61.20;;;;;;4945496;28;20522;-64
2022/08/26 10:29:55;;;;;;;6.45;5.55;;;38.00;61.60;;;;;;4962895;28;20034;-65
2022/08/26 10:32:38;;;;;;;6.63;5.93;;;38.00;62.60;;;;;;4965896;28;20121;-67
2022/08/26 10:35:06;;;;;;;5.50;4.97;;;38.30;60.00;;;;;;4956882;28;20030;-65
2022/08/26 10:37:41;;;;;;;6.15;5.57;;;38.40;62.00;;;;;;4971863;28;20019;-66
2022/08/26 10:40:22;;;;;;;6.75;5.55;;;38.40;62.60;;;;;;4976425;28;20026;-66
2022/08/26 10:43:04;;;;;;;6.43;5.88;;;38.30;60.70;;;;;;4955141;28;20289;-66
2022/08/26 10:45:46;;;;;;;6.25;5.72;;;38.50;59.20;;;;;;4968652;28;20034;-65
2022/08/26 10:48:21;;;;;;;5.80;5.30;;;38.20;60.60;;;;;;4958205;28;20110;-66
2022/08/26 10:50:47;;;;;;;6.15;5.47;;;38.20;62.80;;;;;;4959984;28;20031;-66
2022/08/26 10:53:19;;;;;;;6.45;5.85;;;38.30;60.40;;;;;;4958923;28;20386;-66
2022/08/26 10:56:06;;;;;;;6.57;5.57;;;38.20;62.70;;;;;;4959710;28;20027;-67
2022/08/26 10:58:52;;;;;;;6.10;5.55;;;38.40;65.90;;;;;;4974252;28;20043;-60
2022/08/26 11:01:41;;;;;;;5.72;5.10;;;38.40;61.80;;;;;;4972935;28;20022;-60
2022/08/26 11:04:42;;;;;;;5.57;5.07;;;38.70;61.20;;;;;;4969822;28;20035;-61
2022/08/26 11:07:32;;;;;;;5.32;4.82;;;38.40;62.40;;;;;;4893813;29;20059;-58
2022/08/26 11:10:04;;;;;;;5.97;5.38;;;38.50;59.10;;;;;;4965441;28;20392;-58
2022/08/26 11:12:33;;;;;;;;;;;38.80;61.70;;;;;;4971824;28;20392;-59
2022/08/26 11:15:00;;;;;;;7.68;6.07;;;38.80;58.30;;;;;;4957087;28;20013;-58
2022/08/26 11:17:44;;;;;;;5.70;5.30;;;38.90;60.40;;;;;;4974100;28;20031;-58
2022/08/26 11:20:37;;;;;;;6.65;5.13;;;38.90;57.40;;;;;;4946045;28;20033;-57
2022/08/26 11:23:12;;;;;;;6.32;5.50;;;38.90;58.20;;;;;;4959531;28;20525;-58
2022/08/26 11:26:08;;;;;;;6.18;5.60;;;38.90;59.60;;;;;;4962566;28;20073;-58
2022/08/26 11:28:43;;;;;;;8.32;6.05;;;38.80;58.10;;;;;;4963319;28;20042;-58
2022/08/26 11:31:37;;;;;;;7.63;5.97;;;38.20;58.60;;;;;;4973977;28;20046;-60
2022/08/26 11:34:06;;;;;;;6.40;5.80;;;38.20;63.30;;;;;;4957700;28;20437;-60
2022/08/26 11:36:46;;;;;;;7.22;6.53;;;38.10;61.50;;;;;;4975720;28;20121;-60
2022/08/26 11:39:12;;;;;;;6.82;6.13;;;38.30;62.90;;;;;;4976101;28;20031;-61
2022/08/26 11:41:45;;;;;;;6.95;6.38;;;38.30;61.50;;;;;;4954664;28;20441;-63
2022/08/26 11:44:17;;;;;;;8.13;6.78;;;38.20;60.80;;;;;;4973448;28;20030;-63
2022/08/26 11:46:50;;;;;;;;;;;37.90;60.80;;;;;;4974231;28;20018;-75
2022/08/26 11:49:16;;;;;;;7.53;6.57;;;37.60;61.00;;;;;;4973307;28;20245;-63
2022/08/26 11:51:42;;;;;;;7.70;7.00;;;37.60;62.70;;;;;;4973921;28;20031;-63
2022/08/26 11:54:11;;;;;;;9.07;6.97;;;37.50;62.10;;;;;;4974763;28;20079;-63
2022/08/26 11:56:40;;;;;;;9.02;7.30;;;37.20;61.60;;;;;;4973736;28;20023;-63
2022/08/26 11:59:14;;;;;;;7.05;6.35;;;37.10;62.00;;;;;;4974247;28;20033;-63
2022/08/26 12:01:44;;;;;;;10.40;6.97;;;37.40;61.40;;;;;;4975103;28;20475;-63
2022/08/26 12:04:30;;;;;;;7.38;6.70;;;37.40;64.10;;;;;;4973679;28;20026;-63
2022/08/26 12:06:57;;;;;;;7.13;6.45;;;37.00;59.70;;;;;;4973754;28;20036;-63
2022/08/26 12:09:33;;;;;;;6.18;5.57;;;36.80;58.90;;;;;;4974135;28;20065;-63
2022/08/26 12:12:14;;;;;;;6.43;5.82;;;36.50;58.00;;;;;;4974659;28;20039;-63
2022/08/26 12:14:40;;;;;;;5.75;5.25;;;36.40;60.00;;;;;;4974301;28;20098;-63
2022/08/26 12:17:17;;;;;;;6.13;5.53;;;36.80;61.10;;;;;;4974993;28;20393;-63
2022/08/26 12:19:43;;;;;;;6.80;5.50;;;36.90;62.50;;;;;;4975609;28;20465;-63
2022/08/26 12:22:22;;;;;;;5.82;5.32;;;37.20;60.30;;;;;;4975673;28;20484;-63
2022/08/26 12:24:50;;;;;;;6.38;4.85;;;37.50;59.90;;;;;;4957960;28;20088;-63
2022/08/26 12:27:17;;;;;;;6.03;4.95;;;37.70;58.40;;;;;;4975180;28;20101;-63
2022/08/26 12:29:43;;;;;;;4.95;4.55;;;38.20;57.90;;;;;;4974860;28;20049;-63
2022/08/26 12:32:13;;;;;;;6.32;4.60;;;38.60;57.40;;;;;;4975304;28;20480;-63
2022/08/26 12:34:45;;;;;;;6.57;4.85;;;38.90;58.60;;;;;;4975272;28;20019;-63
2022/08/26 12:37:12;;;;;;;4.95;4.55;;;38.90;56.20;;;;;;4975169;28;20579;-63
2022/08/26 12:39:43;;;;;;;5.00;4.38;;;38.80;58.20;;;;;;4974940;28;20477;-63
2022/08/26 12:42:11;;;;;;;5.03;4.60;;;38.90;58.90;;;;;;4974786;28;20026;-63
2022/08/26 12:45:24;;;;;;;4.80;4.40;;;38.90;57.80;;;;;;4975246;28;20037;-63
2022/08/26 12:47:56;;;;;;;6.30;3.97;;;38.70;56.30;;;;;;4934702;29;20043;-63
2022/08/26 12:50:32;;;;;;;5.00;4.13;;;38.40;56.60;;;;;;4971846;28;20042;-63
2022/08/26 12:53:09;;;;;;;7.13;4.10;;;38.50;55.90;;;;;;4974990;28;20034;-63
2022/08/26 12:55:56;;;;;;;5.78;4.45;;;38.10;55.70;;;;;;4974178;28;20027;-63
2022/08/26 12:58:32;;;;;;;5.13;4.30;;;37.50;54.10;;;;;;4974631;28;20061;-63
2022/08/26 13:01:03;;;;;;;5.78;3.92;;;37.10;58.10;;;;;;4974820;28;20118;-63
2022/08/26 13:03:44;;;;;;;4.57;4.18;;;36.90;56.00;;;;;;4974763;28;20023;-63
2022/08/26 13:06:12;;;;;;;4.15;3.60;;;36.60;55.50;;;;;;4974740;28;20093;-63
2022/08/26 13:08:51;;;;;;;6.88;3.72;;;36.50;57.20;;;;;;4974702;28;20022;-63
2022/08/26 13:11:27;;;;;;;3.70;3.40;;;36.70;58.40;;;;;;4974416;28;20073;-63
2022/08/26 13:13:58;;;;;;;5.07;3.33;;;37.00;56.60;;;;;;4974656;28;20022;-63
2022/08/26 13:16:25;;;;;;;3.55;3.08;;;37.20;56.30;;;;;;4974605;28;20018;-63
2022/08/26 13:18:54;;;;;;;4.18;2.60;;;37.50;55.80;;;;;;4974564;28;20022;-63
2022/08/26 13:21:26;;;;;;;3.80;3.50;;;37.60;53.60;;;;;;4974458;28;20031;-63
2022/08/26 13:23:52;;;;;;;;;;;37.60;55.00;;;;;;4974879;28;20118;-63
2022/08/26 13:26:18;;;;;;;3.95;3.47;;;37.90;56.50;;;;;;4974066;28;19961;-63
2022/08/26 13:28:44;;;;;;;4.55;3.35;;;37.60;57.70;;;;;;4974608;28;20022;-63
2022/08/26 13:31:11;;;;;;;4.68;3.17;;;37.60;57.90;;;;;;4974387;28;20370;-63
2022/08/26 13:33:36;;;;;;;3.08;2.80;;;37.80;58.00;;;;;;4974320;28;20105;-63